Time,TemperatureF,DewpointF,PressureIn,WindDirection,WindDirectionDegrees,WindSpeedMPH,WindSpeedGustMPH,Humidity,HourlyPrecipIn,Conditions,Clouds,dailyrainin,SoftwareType,DateUTC
2013-07-18 00:00:00,77.9,66.4,30.30,NE,45,0.0,0.0,68,-99.99,,,-99.99,WSDL version 430,2013-07-18 05:00:00,
2013-07-18 00:05:00,77.7,65.9,30.30,NE,45,0.0,0.0,67,-99.99,,,-99.99,WSDL version 430,2013-07-18 05:05:00,
2013-07-18 00:10:00,77.4,65.9,30.30,NE,45,0.0,0.0,68,-99.99,,,-99.99,WSDL version 430,2013-07-18 05:10:00,
2013-07-18 00:15:00,77.4,65.9,30.30,NE,45,0.0,0.0,68,-99.99,,,-99.99,WSDL version 430,2013-07-18 05:15:00,
2013-07-18 00:20:00,76.8,65.4,30.30,NE,45,0.0,0.0,68,-99.99,,,-99.99,WSDL version 430,2013-07-18 05:20:00,
2013-07-18 00:25:00,76.9,65.6,30.30,NE,45,0.0,0.0,68,-99.99,,,-99.99,WSDL version 430,2013-07-18 05:25:00,
2013-07-18 00:30:00,76.9,65.5,30.30,NE,45,0.0,0.0,68,-99.99,,,-99.99,WSDL version 430,2013-07-18 05:30:00,
2013-07-18 00:35:00,76.6,65.3,30.30,NE,45,0.0,0.0,68,-99.99,,,-99.99,WSDL version 430,2013-07-18 05:35:00,
2013-07-18 00:40:00,76.8,65.5,30.30,NE,45,0.0,0.0,68,-99.99,,,-99.99,WSDL version 430,2013-07-18 05:40:00,
2013-07-18 00:45:00,76.6,65.3,30.30,NE,45,0.0,0.0,68,-99.99,,,-99.99,WSDL version 430,2013-07-18 05:45:00,
2013-07-18 00:50:00,76.6,65.3,30.30,NE,45,0.0,0.0,68,-99.99,,,-99.99,WSDL version 430,2013-07-18 05:50:00,
2013-07-18 00:55:00,76.6,65.4,30.30,NE,45,0.0,0.0,68,-99.99,,,-99.99,WSDL version 430,2013-07-18 05:55:00,
2013-07-18 01:00:00,76.3,65.1,30.30,NE,45,0.0,0.0,68,-99.99,,,-99.99,WSDL version 430,2013-07-18 06:00:00,
2013-07-18 01:05:00,76.4,65.5,30.30,NE,45,0.0,0.0,69,-99.99,,,-99.99,WSDL version 430,2013-07-18 06:05:00,
2013-07-18 01:12:00,76.1,64.8,30.30,NE,45,0.0,0.0,68,-99.99,,,-99.99,WSDL version 430,2013-07-18 06:12:00,
2013-07-18 01:17:00,76.1,65.2,30.30,NE,45,0.0,0.0,69,-99.99,,,-99.99,WSDL version 430,2013-07-18 06:17:00,
2013-07-18 01:22:00,76.1,65.2,30.30,NE,45,0.0,0.0,69,-99.99,,,-99.99,WSDL version 430,2013-07-18 06:22:00,
2013-07-18 01:27:00,75.8,64.9,30.30,NE,45,0.0,0.0,69,-99.99,,,-99.99,WSDL version 430,2013-07-18 06:27:00,
2013-07-18 01:32:00,75.7,64.9,30.30,NE,45,0.0,0.0,69,-99.99,,,-99.99,WSDL version 430,2013-07-18 06:32:00,
2013-07-18 01:37:00,75.4,64.5,30.30,NE,45,0.0,0.0,69,-99.99,,,-99.99,WSDL version 430,2013-07-18 06:37:00,
2013-07-18 01:42:00,75.3,64.8,30.30,NE,45,0.0,0.0,70,-99.99,,,-99.99,WSDL version 430,2013-07-18 06:42:00,
2013-07-18 01:47:00,75.4,64.8,30.30,NE,45,0.0,0.0,70,-99.99,,,-99.99,WSDL version 430,2013-07-18 06:47:00,
2013-07-18 01:52:00,75.2,64.4,30.27,NE,45,0.0,0.0,69,-99.99,,,-99.99,WSDL version 430,2013-07-18 06:52:00,
2013-07-18 01:57:00,75.0,64.6,30.27,NE,45,0.0,0.0,70,-99.99,,,-99.99,WSDL version 430,2013-07-18 06:57:00,
2013-07-18 02:02:00,75.2,64.7,30.27,NE,45,0.0,0.0,70,-99.99,,,-99.99,WSDL version 430,2013-07-18 07:02:00,
2013-07-18 02:07:00,74.8,64.4,30.27,NE,45,0.0,0.0,70,-99.99,,,-99.99,WSDL version 430,2013-07-18 07:07:00,
2013-07-18 02:12:00,74.5,64.1,30.27,NE,45,0.0,0.0,70,-99.99,,,-99.99,WSDL version 430,2013-07-18 07:12:00,
2013-07-18 02:17:00,74.5,64.5,30.27,NE,45,0.0,0.0,71,-99.99,,,-99.99,WSDL version 430,2013-07-18 07:17:00,
2013-07-18 02:22:00,74.6,64.6,30.27,NE,45,0.0,0.0,71,-99.99,,,-99.99,WSDL version 430,2013-07-18 07:22:00,
2013-07-18 02:27:00,74.3,64.1,30.27,NE,45,1.3,1.6,71,-99.99,,,-99.99,WSDL version 430,2013-07-18 07:27:00,
2013-07-18 02:32:00,74.0,63.7,30.27,NE,45,0.0,1.6,70,-99.99,,,-99.99,WSDL version 430,2013-07-18 07:32:00,
2013-07-18 02:37:00,74.0,63.9,30.27,NE,45,0.0,0.0,71,-99.99,,,-99.99,WSDL version 430,2013-07-18 07:37:00,
2013-07-18 02:42:00,74.3,64.3,30.27,NE,45,0.0,0.0,71,-99.99,,,-99.99,WSDL version 430,2013-07-18 07:42:00,
2013-07-18 02:47:00,74.1,64.0,30.27,NE,45,0.0,0.0,71,-99.99,,,-99.99,WSDL version 430,2013-07-18 07:47:00,
2013-07-18 02:52:00,74.0,63.6,30.27,NE,45,0.0,0.0,70,-99.99,,,-99.99,WSDL version 430,2013-07-18 07:52:00,
2013-07-18 02:57:00,73.9,63.9,30.27,NE,45,0.0,0.0,71,-99.99,,,-99.99,WSDL version 430,2013-07-18 07:57:00,
2013-07-18 03:07:00,74.4,64.4,30.24,NE,45,0.0,0.0,71,-99.99,,,-99.99,WSDL version 430,2013-07-18 08:07:00,
2013-07-18 03:12:00,74.2,64.2,30.24,NE,45,0.0,0.0,71,-99.99,,,-99.99,WSDL version 430,2013-07-18 08:12:00,
2013-07-18 03:17:00,73.8,63.8,30.24,NE,45,0.0,0.0,71,-99.99,,,-99.99,WSDL version 430,2013-07-18 08:17:00,
2013-07-18 03:22:00,73.6,63.6,30.24,NE,45,0.0,0.0,71,-99.99,,,-99.99,WSDL version 430,2013-07-18 08:22:00,
2013-07-18 03:27:00,74.0,64.3,30.24,NE,45,0.0,0.0,72,-99.99,,,-99.99,WSDL version 430,2013-07-18 08:27:00,
2013-07-18 03:32:00,74.2,64.3,30.24,NE,45,0.0,0.0,71,-99.99,,,-99.99,WSDL version 430,2013-07-18 08:32:00,
2013-07-18 03:37:00,73.9,63.9,30.24,NE,45,0.0,0.0,71,-99.99,,,-99.99,WSDL version 430,2013-07-18 08:37:00,
2013-07-18 03:42:00,73.6,63.7,30.24,NE,45,0.0,0.0,71,-99.99,,,-99.99,WSDL version 430,2013-07-18 08:42:00,
2013-07-18 03:47:00,73.5,63.5,30.24,NE,45,0.0,0.0,71,-99.99,,,-99.99,WSDL version 430,2013-07-18 08:47:00,
2013-07-18 03:52:00,73.3,63.5,30.24,NE,45,0.0,0.0,71,-99.99,,,-99.99,WSDL version 430,2013-07-18 08:52:00,
2013-07-18 03:57:00,73.1,63.6,30.24,NE,45,0.0,0.0,72,-99.99,,,-99.99,WSDL version 430,2013-07-18 08:57:00,
2013-07-18 04:02:00,73.1,63.6,30.24,NE,45,0.0,0.0,72,-99.99,,,-99.99,WSDL version 430,2013-07-18 09:02:00,
2013-07-18 04:07:00,73.4,63.9,30.24,NE,45,0.0,0.0,72,-99.99,,,-99.99,WSDL version 430,2013-07-18 09:07:00,
2013-07-18 04:12:00,73.2,63.7,30.24,NE,45,0.0,0.0,72,-99.99,,,-99.99,WSDL version 430,2013-07-18 09:12:00,
2013-07-18 04:17:00,73.0,63.4,30.24,NE,45,0.0,0.0,72,-99.99,,,-99.99,WSDL version 430,2013-07-18 09:17:00,
2013-07-18 04:22:00,72.8,63.5,30.24,NE,45,0.0,0.0,73,-99.99,,,-99.99,WSDL version 430,2013-07-18 09:22:00,
2013-07-18 04:27:00,72.6,63.4,30.24,NE,45,0.0,0.0,73,-99.99,,,-99.99,WSDL version 430,2013-07-18 09:27:00,
2013-07-18 04:32:00,72.5,63.4,30.24,NE,45,0.0,0.0,73,-99.99,,,-99.99,WSDL version 430,2013-07-18 09:32:00,
2013-07-18 04:37:00,72.3,63.6,30.21,NE,45,0.0,0.0,74,-99.99,,,-99.99,WSDL version 430,2013-07-18 09:37:00,
2013-07-18 04:42:00,72.2,63.4,30.21,NE,45,0.0,0.0,74,-99.99,,,-99.99,WSDL version 430,2013-07-18 09:42:00,
2013-07-18 04:47:00,72.3,63.8,30.21,NE,45,0.0,0.0,75,-99.99,,,-99.99,WSDL version 430,2013-07-18 09:47:00,
2013-07-18 04:52:00,72.6,64.2,30.24,NE,45,0.0,0.0,75,-99.99,,,-99.99,WSDL version 430,2013-07-18 09:52:00,
2013-07-18 04:57:00,72.4,63.7,30.24,NE,45,0.0,0.0,74,-99.99,,,-99.99,WSDL version 430,2013-07-18 09:57:00,
2013-07-18 05:02:00,72.0,63.7,30.24,NE,45,0.0,0.0,75,-99.99,,,-99.99,WSDL version 430,2013-07-18 10:02:00,
2013-07-18 05:07:00,71.9,63.6,30.24,NE,45,0.0,0.0,75,-99.99,,,-99.99,WSDL version 430,2013-07-18 10:07:00,
2013-07-18 05:12:00,71.8,63.4,30.24,NE,45,0.0,0.0,75,-99.99,,,-99.99,WSDL version 430,2013-07-18 10:12:00,
2013-07-18 05:17:00,71.6,63.5,30.24,NE,45,0.0,0.0,76,-99.99,,,-99.99,WSDL version 430,2013-07-18 10:17:00,
2013-07-18 05:22:00,71.5,63.5,30.24,NE,45,0.0,0.0,76,-99.99,,,-99.99,WSDL version 430,2013-07-18 10:22:00,
2013-07-18 05:27:00,71.4,63.7,30.24,NE,45,0.0,0.0,77,-99.99,,,-99.99,WSDL version 430,2013-07-18 10:27:00,
2013-07-18 05:32:00,71.6,64.0,30.24,NE,45,0.0,0.0,77,-99.99,,,-99.99,WSDL version 430,2013-07-18 10:32:00,
2013-07-18 05:37:00,71.6,63.9,30.24,NE,45,0.0,0.0,77,-99.99,,,-99.99,WSDL version 430,2013-07-18 10:37:00,
2013-07-18 05:42:00,71.3,63.8,30.24,NE,45,0.0,0.0,77,-99.99,,,-99.99,WSDL version 430,2013-07-18 10:42:00,
2013-07-18 05:47:00,71.1,63.5,30.24,NE,45,0.0,0.0,77,-99.99,,,-99.99,WSDL version 430,2013-07-18 10:47:00,
2013-07-18 05:52:00,71.0,63.5,30.24,NE,45,0.0,0.0,77,-99.99,,,-99.99,WSDL version 430,2013-07-18 10:52:00,
2013-07-18 05:57:00,70.9,63.7,30.24,NE,45,0.0,0.0,78,-99.99,,,-99.99,WSDL version 430,2013-07-18 10:57:00,
2013-07-18 06:02:00,70.9,63.7,30.24,NE,45,0.0,0.0,78,-99.99,,,-99.99,WSDL version 430,2013-07-18 11:02:00,
2013-07-18 06:07:00,71.4,64.3,30.24,NE,45,0.0,0.0,79,-99.99,,,-99.99,WSDL version 430,2013-07-18 11:07:00,
2013-07-18 06:12:00,71.3,64.1,30.24,NE,45,0.0,0.0,78,-99.99,,,-99.99,WSDL version 430,2013-07-18 11:12:00,
2013-07-18 06:17:00,71.1,63.9,30.24,NE,45,0.0,0.0,78,-99.99,,,-99.99,WSDL version 430,2013-07-18 11:17:00,
2013-07-18 06:22:00,71.0,63.8,30.24,NE,45,0.0,0.0,78,-99.99,,,-99.99,WSDL version 430,2013-07-18 11:22:00,
2013-07-18 06:27:00,70.9,63.7,30.24,NE,45,0.0,0.0,78,-99.99,,,-99.99,WSDL version 430,2013-07-18 11:27:00,
2013-07-18 06:32:00,70.7,63.6,30.24,NE,45,0.0,0.0,78,-99.99,,,-99.99,WSDL version 430,2013-07-18 11:32:00,
2013-07-18 06:37:00,70.7,63.7,30.24,NE,45,0.0,0.0,79,-99.99,,,-99.99,WSDL version 430,2013-07-18 11:37:00,
2013-07-18 06:42:00,70.9,64.1,30.24,NE,45,0.0,0.0,79,-99.99,,,-99.99,WSDL version 430,2013-07-18 11:42:00,
2013-07-18 06:47:00,71.4,64.5,30.24,NE,45,0.0,0.0,79,-99.99,,,-99.99,WSDL version 430,2013-07-18 11:47:00,
2013-07-18 06:52:00,71.3,64.5,30.24,NE,45,0.0,0.0,79,-99.99,,,-99.99,WSDL version 430,2013-07-18 11:52:00,
2013-07-18 06:57:00,71.2,64.4,30.24,NE,45,0.0,0.0,79,-99.99,,,-99.99,WSDL version 430,2013-07-18 11:57:00,
2013-07-18 07:02:00,71.3,64.5,30.24,NE,45,0.0,0.0,79,-99.99,,,-99.99,WSDL version 430,2013-07-18 12:02:00,
2013-07-18 07:07:00,72.1,65.2,30.24,NE,45,0.0,0.0,79,-99.99,,,-99.99,WSDL version 430,2013-07-18 12:07:00,
2013-07-18 07:12:00,72.3,65.2,30.24,NE,45,0.0,0.0,79,-99.99,,,-99.99,WSDL version 430,2013-07-18 12:12:00,
2013-07-18 07:17:00,72.1,64.9,30.24,NE,45,0.0,0.0,78,-99.99,,,-99.99,WSDL version 430,2013-07-18 12:17:00,
2013-07-18 07:22:00,72.1,64.9,30.24,NE,45,0.0,0.0,78,-99.99,,,-99.99,WSDL version 430,2013-07-18 12:22:00,
2013-07-18 07:27:00,72.1,64.9,30.24,NE,45,0.0,0.0,78,-99.99,,,-99.99,WSDL version 430,2013-07-18 12:27:00,
2013-07-18 07:32:00,72.7,65.8,30.24,NE,45,0.0,0.0,79,-99.99,,,-99.99,WSDL version 430,2013-07-18 12:32:00,
2013-07-18 07:37:00,74.4,67.2,30.24,NE,45,0.0,0.0,78,-99.99,,,-99.99,WSDL version 430,2013-07-18 12:37:00,
2013-07-18 07:42:00,74.5,66.4,30.24,NE,45,0.0,0.0,76,-99.99,,,-99.99,WSDL version 430,2013-07-18 12:42:00,
2013-07-18 07:47:00,74.2,65.6,30.24,NE,45,0.0,0.0,74,-99.99,,,-99.99,WSDL version 430,2013-07-18 12:47:00,
2013-07-18 07:52:00,74.1,65.3,30.24,NE,45,0.0,0.0,74,-99.99,,,-99.99,WSDL version 430,2013-07-18 12:52:00,
2013-07-18 07:57:00,74.1,65.3,30.24,NE,45,0.0,0.0,74,-99.99,,,-99.99,WSDL version 430,2013-07-18 12:57:00,
2013-07-18 08:02:00,74.8,66.2,30.24,NE,45,0.0,0.0,75,-99.99,,,-99.99,WSDL version 430,2013-07-18 13:02:00,
2013-07-18 08:07:00,76.6,67.1,30.27,South,180,1.1,2.0,73,-99.99,,,-99.99,WSDL version 430,2013-07-18 13:07:00,
2013-07-18 08:12:00,76.6,66.2,30.27,SW,225,0.7,2.7,70,-99.99,,,-99.99,WSDL version 430,2013-07-18 13:12:00,
2013-07-18 08:17:00,76.4,65.9,30.27,SSW,203,0.0,2.7,70,-99.99,,,-99.99,WSDL version 430,2013-07-18 13:17:00,
2013-07-18 08:22:00,76.3,65.5,30.24,SSW,203,0.0,0.0,69,-99.99,,,-99.99,WSDL version 430,2013-07-18 13:22:00,
2013-07-18 08:27:00,77.5,66.9,30.24,SW,225,0.0,0.0,70,-99.99,,,-99.99,WSDL version 430,2013-07-18 13:27:00,
2013-07-18 08:32:00,78.0,67.0,30.24,SSW,203,0.4,1.3,69,-99.99,,,-99.99,WSDL version 430,2013-07-18 13:32:00,
2013-07-18 08:37:00,77.9,66.4,30.24,South,170,0.8,2.5,68,-99.99,,,-99.99,WSDL version 430,2013-07-18 13:37:00,
2013-07-18 08:42:00,77.7,65.8,30.24,SSW,194,0.6,2.5,67,-99.99,,,-99.99,WSDL version 430,2013-07-18 13:42:00,
2013-07-18 08:47:00,78.8,66.5,30.24,SSW,203,0.0,2.2,66,-99.99,,,-99.99,WSDL version 430,2013-07-18 13:47:00,
2013-07-18 08:52:00,79.8,67.0,30.24,South,191,0.6,1.6,65,-99.99,,,-99.99,WSDL version 430,2013-07-18 13:52:00,
2013-07-18 08:57:00,79.6,66.3,30.24,South,180,0.4,1.6,64,-99.99,,,-99.99,WSDL version 430,2013-07-18 13:57:00,
2013-07-18 09:02:00,79.9,66.4,30.24,SSE,158,0.4,1.6,64,-99.99,,,-99.99,WSDL version 430,2013-07-18 14:02:00,
2013-07-18 09:07:00,81.2,67.0,30.24,SSE,158,0.0,2.0,62,-99.99,,,-99.99,WSDL version 430,2013-07-18 14:07:00,
2013-07-18 09:12:00,81.1,66.6,30.24,SSE,158,0.1,2.2,62,-99.99,,,-99.99,WSDL version 430,2013-07-18 14:12:00,
2013-07-18 09:17:00,80.7,65.8,30.24,SSE,158,0.3,2.2,61,-99.99,,,-99.99,WSDL version 430,2013-07-18 14:17:00,
2013-07-18 09:22:00,80.5,65.5,30.24,SSE,158,0.5,1.6,60,-99.99,,,-99.99,WSDL version 430,2013-07-18 14:22:00,
2013-07-18 09:27:00,80.4,65.3,30.24,SSE,158,0.5,2.5,60,-99.99,,,-99.99,WSDL version 430,2013-07-18 14:27:00,
2013-07-18 09:32:00,81.5,66.3,30.24,SSW,203,0.5,2.5,60,-99.99,,,-99.99,WSDL version 430,2013-07-18 14:32:00,
2013-07-18 09:37:00,82.0,65.5,30.27,West,270,1.2,2.7,58,-99.99,,,-99.99,WSDL version 430,2013-07-18 14:37:00,
2013-07-18 09:42:00,81.7,65.6,30.27,WSW,245,0.0,2.7,58,-99.99,,,-99.99,WSDL version 430,2013-07-18 14:42:00,
2013-07-18 09:47:00,81.7,66.0,30.27,South,172,1.5,3.6,59,-99.99,,,-99.99,WSDL version 430,2013-07-18 14:47:00,
2013-07-18 09:52:00,82.6,66.7,30.24,SSW,198,0.9,3.6,59,-99.99,,,-99.99,WSDL version 430,2013-07-18 14:52:00,
2013-07-18 09:57:00,83.2,66.6,30.24,SSW,203,0.0,2.2,57,-99.99,,,-99.99,WSDL version 430,2013-07-18 14:57:00,
2013-07-18 10:02:00,83.0,66.6,30.24,South,180,1.2,2.0,58,-99.99,,,-99.99,WSDL version 430,2013-07-18 15:02:00,
2013-07-18 10:07:00,83.2,66.2,30.24,SE,129,1.7,4.3,57,-99.99,,,-99.99,WSDL version 430,2013-07-18 15:07:00,
2013-07-18 10:12:00,83.9,66.9,30.24,South,185,1.4,4.3,57,-99.99,,,-99.99,WSDL version 430,2013-07-18 15:12:00,
2013-07-18 10:17:00,83.9,65.8,30.24,WNW,293,2.5,4.3,55,-99.99,,,-99.99,WSDL version 430,2013-07-18 15:17:00,
2013-07-18 10:22:00,84.4,66.1,30.21,SSW,203,1.5,4.3,54,-99.99,,,-99.99,WSDL version 430,2013-07-18 15:22:00,
2013-07-18 10:27:00,85.1,66.5,30.21,SW,231,1.1,2.2,54,-99.99,,,-99.99,WSDL version 430,2013-07-18 15:27:00,
2013-07-18 10:32:00,85.1,66.2,30.21,SSW,209,1.0,2.5,53,-99.99,,,-99.99,WSDL version 430,2013-07-18 15:32:00,
2013-07-18 10:37:00,86.0,66.6,30.24,SW,225,0.0,2.5,52,-99.99,,,-99.99,WSDL version 430,2013-07-18 15:37:00,
2013-07-18 10:47:00,86.3,64.6,30.24,SW,216,1.7,2.9,49,-99.99,,,-99.99,WSDL version 430,2013-07-18 15:47:00,
2013-07-18 10:52:00,86.7,64.4,30.24,West,266,0.7,2.9,48,-99.99,,,-99.99,WSDL version 430,2013-07-18 15:52:00,
2013-07-18 10:57:00,86.5,64.9,30.24,WNW,286,1.2,2.5,49,-99.99,,,-99.99,WSDL version 430,2013-07-18 15:57:00,
2013-07-18 11:02:00,87.3,64.8,30.24,SSE,158,2.2,2.9,47,-99.99,,,-99.99,WSDL version 430,2013-07-18 16:02:00,
2013-07-18 11:07:00,87.5,64.1,30.24,SW,233,1.5,3.1,46,-99.99,,,-99.99,WSDL version 430,2013-07-18 16:07:00,
2013-07-18 11:12:00,87.4,63.7,30.24,SSE,164,0.6,3.1,45,-99.99,,,-99.99,WSDL version 430,2013-07-18 16:12:00,
2013-07-18 11:17:00,88.0,63.2,30.24,SW,219,1.1,3.1,44,-99.99,,,-99.99,WSDL version 430,2013-07-18 16:17:00,
2013-07-18 11:22:00,87.9,62.5,30.27,SSW,203,1.8,2.9,43,-99.99,,,-99.99,WSDL version 430,2013-07-18 16:22:00,
2013-07-18 11:27:00,87.9,61.8,30.27,South,182,1.0,2.9,42,-99.99,,,-99.99,WSDL version 430,2013-07-18 16:27:00,
2013-07-18 11:32:00,88.3,62.4,30.27,SSE,149,1.7,3.1,42,-99.99,,,-99.99,WSDL version 430,2013-07-18 16:32:00,
2013-07-18 11:42:00,89.3,62.7,30.24,South,188,1.9,3.1,41,-99.99,,,-99.99,WSDL version 430,2013-07-18 16:42:00,
2013-07-18 11:47:00,89.3,61.7,30.24,WNW,302,1.7,3.4,40,-99.99,,,-99.99,WSDL version 430,2013-07-18 16:47:00,
2013-07-18 11:52:00,89.6,61.5,30.24,WSW,257,2.2,3.4,39,-99.99,,,-99.99,WSDL version 430,2013-07-18 16:52:00,
2013-07-18 11:57:00,90.3,61.3,30.24,WSW,239,2.0,3.4,38,-99.99,,,-99.99,WSDL version 430,2013-07-18 16:57:00,
2013-07-18 12:02:00,90.3,61.1,30.24,WNW,290,1.5,3.1,38,-99.99,,,-99.99,WSDL version 430,2013-07-18 17:02:00,
2013-07-18 12:07:00,90.4,61.5,30.24,West,274,1.0,3.1,38,-99.99,,,-99.99,WSDL version 430,2013-07-18 17:07:00,
2013-07-18 12:12:00,90.5,62.1,30.24,SSW,194,1.5,3.1,39,-99.99,,,-99.99,WSDL version 430,2013-07-18 17:12:00,
2013-07-18 12:17:00,90.5,61.0,30.24,SW,232,1.7,3.1,38,-99.99,,,-99.99,WSDL version 430,2013-07-18 17:17:00,
2013-07-18 12:22:00,91.0,61.7,30.24,WSW,241,1.9,3.1,38,-99.99,,,-99.99,WSDL version 430,2013-07-18 17:22:00,
2013-07-18 12:32:00,91.7,61.2,30.24,South,169,1.8,2.7,36,-99.99,,,-99.99,WSDL version 430,2013-07-18 17:32:00,
2013-07-18 12:37:00,92.3,61.1,30.21,WNW,295,1.8,2.5,35,-99.99,,,-99.99,WSDL version 430,2013-07-18 17:37:00,
2013-07-18 12:42:00,92.1,60.8,30.21,SW,214,1.7,3.1,35,-99.99,,,-99.99,WSDL version 430,2013-07-18 17:42:00,
2013-07-18 12:47:00,91.8,57.8,30.21,South,189,1.1,3.1,32,-99.99,,,-99.99,WSDL version 430,2013-07-18 17:47:00,
2013-07-18 12:52:00,91.8,58.9,30.21,SSE,158,1.6,2.5,33,-99.99,,,-99.99,WSDL version 430,2013-07-18 17:52:00,
2013-07-18 12:57:00,92.8,58.6,30.21,SSW,203,0.7,3.1,32,-99.99,,,-99.99,WSDL version 430,2013-07-18 17:57:00,
2013-07-18 13:02:00,93.1,58.8,30.21,ESE,110,0.8,3.1,32,-99.99,,,-99.99,WSDL version 430,2013-07-18 18:02:00,
2013-07-18 13:07:00,92.8,59.7,30.21,SW,220,1.6,2.7,33,-99.99,,,-99.99,WSDL version 430,2013-07-18 18:07:00,
2013-07-18 13:12:00,92.6,59.4,30.21,WSW,245,1.3,2.7,33,-99.99,,,-99.99,WSDL version 430,2013-07-18 18:12:00,
2013-07-18 13:17:00,93.3,58.3,30.21,East,95,0.6,2.7,31,-99.99,,,-99.99,WSDL version 430,2013-07-18 18:17:00,
2013-07-18 13:27:00,93.4,60.2,30.21,South,173,1.6,2.7,33,-99.99,,,-99.99,WSDL version 430,2013-07-18 18:27:00,
2013-07-18 13:32:00,94.4,60.9,30.21,South,185,2.1,3.6,33,-99.99,,,-99.99,WSDL version 430,2013-07-18 18:32:00,
2013-07-18 13:37:00,94.2,59.6,30.18,SW,217,0.7,3.6,32,-99.99,,,-99.99,WSDL version 430,2013-07-18 18:37:00,
2013-07-18 13:42:00,94.2,58.6,30.18,SSW,212,1.2,2.5,31,-99.99,,,-99.99,WSDL version 430,2013-07-18 18:42:00,
2013-07-18 13:47:00,95.1,60.3,30.18,West,272,1.6,2.9,32,-99.99,,,-99.99,WSDL version 430,2013-07-18 18:47:00,
2013-07-18 13:52:00,94.8,58.5,30.18,SW,219,1.8,2.9,30,-99.99,,,-99.99,WSDL version 430,2013-07-18 18:52:00,
2013-07-18 13:57:00,94.3,56.4,30.18,SW,216,2.5,3.8,28,-99.99,,,-99.99,WSDL version 430,2013-07-18 18:57:00,
2013-07-18 14:02:00,93.7,55.5,30.18,SSW,209,2.4,3.8,28,-99.99,,,-99.99,WSDL version 430,2013-07-18 19:02:00,
2013-07-18 14:07:00,93.7,55.6,30.18,SW,221,1.1,3.6,28,-99.99,,,-99.99,WSDL version 430,2013-07-18 19:07:00,
2013-07-18 14:12:00,94.5,56.6,30.18,SSW,203,2.2,4.9,28,-99.99,,,-99.99,WSDL version 430,2013-07-18 19:12:00,
2013-07-18 14:17:00,94.0,54.9,30.18,SSW,213,1.7,4.9,27,-99.99,,,-99.99,WSDL version 430,2013-07-18 19:17:00,
2013-07-18 14:22:00,93.8,55.1,30.18,NW,311,4.2,6.3,27,-99.99,,,-99.99,WSDL version 430,2013-07-18 19:22:00,
2013-07-18 14:27:00,93.7,55.2,30.18,ENE,68,1.8,6.3,28,-99.99,,,-99.99,WSDL version 430,2013-07-18 19:27:00,
2013-07-18 14:32:00,94.2,56.6,30.18,SE,135,1.5,4.7,29,-99.99,,,-99.99,WSDL version 430,2013-07-18 19:32:00,
2013-07-18 14:37:00,95.2,57.0,30.18,SW,227,1.1,3.1,28,-99.99,,,-99.99,WSDL version 430,2013-07-18 19:37:00,
2013-07-18 14:42:00,95.3,55.9,30.18,SSW,212,2.2,3.4,27,-99.99,,,-99.99,WSDL version 430,2013-07-18 19:42:00,
2013-07-18 14:47:00,95.2,55.9,30.18,West,280,1.7,3.4,27,-99.99,,,-99.99,WSDL version 430,2013-07-18 19:47:00,
2013-07-18 14:52:00,95.5,56.2,30.18,West,275,3.0,3.6,27,-99.99,,,-99.99,WSDL version 430,2013-07-18 19:52:00,
2013-07-18 14:57:00,95.3,55.7,30.18,WNW,299,2.4,3.6,27,-99.99,,,-99.99,WSDL version 430,2013-07-18 19:57:00,
2013-07-18 15:02:00,95.2,56.0,30.18,WSW,250,2.1,3.4,27,-99.99,,,-99.99,WSDL version 430,2013-07-18 20:02:00,
2013-07-18 15:12:00,96.4,58.0,30.18,SSE,153,1.8,3.1,28,-99.99,,,-99.99,WSDL version 430,2013-07-18 20:12:00,
2013-07-18 15:17:00,96.2,57.1,30.18,SE,140,2.5,4.7,27,-99.99,,,-99.99,WSDL version 430,2013-07-18 20:17:00,
2013-07-18 15:22:00,96.6,57.2,30.15,WSW,250,0.0,4.7,27,-99.99,,,-99.99,WSDL version 430,2013-07-18 20:22:00,
2013-07-18 15:27:00,97.3,57.8,30.15,SSW,207,1.1,4.3,27,-99.99,,,-99.99,WSDL version 430,2013-07-18 20:27:00,
2013-07-18 15:32:00,96.6,56.5,30.15,South,184,1.7,2.9,26,-99.99,,,-99.99,WSDL version 430,2013-07-18 20:32:00,
2013-07-18 15:37:00,95.9,55.7,30.15,SW,235,1.6,3.4,26,-99.99,,,-99.99,WSDL version 430,2013-07-18 20:37:00,
2013-07-18 15:42:00,96.0,55.6,30.15,South,173,2.0,3.4,26,-99.99,,,-99.99,WSDL version 430,2013-07-18 20:42:00,
2013-07-18 15:47:00,95.4,55.6,30.15,SSW,201,1.9,3.1,27,-99.99,,,-99.99,WSDL version 430,2013-07-18 20:47:00,
2013-07-18 15:52:00,94.8,55.7,30.12,NW,308,2.2,3.8,27,-99.99,,,-99.99,WSDL version 430,2013-07-18 20:52:00,
2013-07-18 15:57:00,94.8,56.0,30.12,NW,311,3.8,5.4,27,-99.99,,,-99.99,WSDL version 430,2013-07-18 20:57:00,
2013-07-18 16:02:00,94.8,55.8,30.12,East,80,1.6,5.4,27,-99.99,,,-99.99,WSDL version 430,2013-07-18 21:02:00,
2013-07-18 16:07:00,94.6,56.1,30.12,WNW,290,1.6,4.3,28,-99.99,,,-99.99,WSDL version 430,2013-07-18 21:07:00,
2013-07-18 16:12:00,94.6,55.5,30.12,SSW,196,1.3,4.3,27,-99.99,,,-99.99,WSDL version 430,2013-07-18 21:12:00,
2013-07-18 16:17:00,95.5,56.0,30.12,SW,235,0.7,3.6,27,-99.99,,,-99.99,WSDL version 430,2013-07-18 21:17:00,
2013-07-18 16:22:00,96.2,55.8,30.12,South,178,1.0,2.9,26,-99.99,,,-99.99,WSDL version 430,2013-07-18 21:22:00,
2013-07-18 16:27:00,95.8,55.6,30.12,SSW,212,1.3,2.5,26,-99.99,,,-99.99,WSDL version 430,2013-07-18 21:27:00,
2013-07-18 16:32:00,95.5,55.2,30.12,NNW,346,1.9,3.8,26,-99.99,,,-99.99,WSDL version 430,2013-07-18 21:32:00,
2013-07-18 16:37:00,96.0,56.4,30.12,South,188,0.9,3.8,27,-99.99,,,-99.99,WSDL version 430,2013-07-18 21:37:00,
2013-07-18 16:47:00,95.3,55.1,30.12,WSW,240,1.7,3.4,26,-99.99,,,-99.99,WSDL version 430,2013-07-18 21:47:00,
2013-07-18 16:52:00,95.2,56.0,30.12,SSE,155,1.4,3.1,27,-99.99,,,-99.99,WSDL version 430,2013-07-18 21:52:00,
2013-07-18 16:57:00,95.4,56.3,30.12,WSW,239,0.5,2.9,27,-99.99,,,-99.99,WSDL version 430,2013-07-18 21:57:00,
2013-07-18 17:02:00,95.3,56.0,30.12,SSE,166,1.1,2.7,27,-99.99,,,-99.99,WSDL version 430,2013-07-18 22:02:00,
2013-07-18 17:07:00,95.3,56.3,30.12,SW,219,0.6,2.7,27,-99.99,,,-99.99,WSDL version 430,2013-07-18 22:07:00,
2013-07-18 17:12:00,96.3,56.5,30.12,SW,225,1.3,1.6,27,-99.99,,,-99.99,WSDL version 430,2013-07-18 22:12:00,
2013-07-18 17:17:00,96.6,56.1,30.12,SSW,210,1.9,2.7,26,-99.99,,,-99.99,WSDL version 430,2013-07-18 22:17:00,
2013-07-18 17:22:00,96.7,56.4,30.12,WSW,256,0.6,3.1,26,-99.99,,,-99.99,WSDL version 430,2013-07-18 22:22:00,
2013-07-18 17:27:00,96.2,56.7,30.12,West,259,1.8,3.1,27,-99.99,,,-99.99,WSDL version 430,2013-07-18 22:27:00,
2013-07-18 17:32:00,96.7,56.4,30.12,WNW,300,0.6,2.7,26,-99.99,,,-99.99,WSDL version 430,2013-07-18 22:32:00,
2013-07-18 17:37:00,97.0,56.5,30.12,NW,315,2.3,2.9,26,-99.99,,,-99.99,WSDL version 430,2013-07-18 22:37:00,
2013-07-18 17:42:00,96.8,56.8,30.12,WNW,288,1.6,2.9,27,-99.99,,,-99.99,WSDL version 430,2013-07-18 22:42:00,
2013-07-18 17:47:00,96.5,57.1,30.12,West,270,1.5,2.9,27,-99.99,,,-99.99,WSDL version 430,2013-07-18 22:47:00,
2013-07-18 17:52:00,96.4,57.0,30.12,WNW,303,1.8,2.9,27,-99.99,,,-99.99,WSDL version 430,2013-07-18 22:52:00,
2013-07-18 17:57:00,96.9,57.4,30.12,West,276,1.6,2.9,27,-99.99,,,-99.99,WSDL version 430,2013-07-18 22:57:00,
2013-07-18 18:02:00,97.6,57.5,30.12,SSW,213,0.6,2.9,27,-99.99,,,-99.99,WSDL version 430,2013-07-18 23:02:00,
2013-07-18 18:07:00,98.3,58.2,30.12,NW,315,0.3,2.0,27,-99.99,,,-99.99,WSDL version 430,2013-07-18 23:07:00,
2013-07-18 18:12:00,97.6,58.7,30.12,WNW,302,1.1,2.2,28,-99.99,,,-99.99,WSDL version 430,2013-07-18 23:12:00,
2013-07-18 18:17:00,97.4,58.9,30.12,WNW,293,1.4,2.5,28,-99.99,,,-99.99,WSDL version 430,2013-07-18 23:17:00,
2013-07-18 18:22:00,97.5,58.8,30.12,WNW,293,0.7,2.5,28,-99.99,,,-99.99,WSDL version 430,2013-07-18 23:22:00,
2013-07-18 18:27:00,98.0,59.2,30.12,West,270,0.0,1.6,28,-99.99,,,-99.99,WSDL version 430,2013-07-18 23:27:00,
2013-07-18 18:32:00,98.3,58.8,30.12,West,278,0.2,2.0,27,-99.99,,,-99.99,WSDL version 430,2013-07-18 23:32:00,
2013-07-18 18:37:00,98.4,59.5,30.12,WNW,293,0.0,2.5,28,-99.99,,,-99.99,WSDL version 430,2013-07-18 23:37:00,
2013-07-18 18:42:00,98.1,59.0,30.12,West,268,0.5,2.5,28,-99.99,,,-99.99,WSDL version 430,2013-07-18 23:42:00,
2013-07-18 18:47:00,98.2,59.4,30.12,West,270,0.0,2.0,28,-99.99,,,-99.99,WSDL version 430,2013-07-18 23:47:00,
2013-07-18 18:52:00,98.4,59.2,30.12,WSW,250,0.5,2.5,28,-99.99,,,-99.99,WSDL version 430,2013-07-18 23:52:00,
2013-07-18 18:57:00,98.8,58.4,30.12,WSW,248,0.0,2.5,26,-99.99,,,-99.99,WSDL version 430,2013-07-18 23:57:00,
2013-07-18 19:02:00,98.7,59.0,30.12,WSW,248,0.0,1.6,27,-99.99,,,-99.99,WSDL version 430,2013-07-19 00:02:00,
2013-07-18 19:07:00,98.2,58.5,30.09,WSW,248,0.0,1.1,27,-99.99,,,-99.99,WSDL version 430,2013-07-19 00:07:00,
2013-07-18 19:12:00,97.6,58.8,30.09,WSW,248,0.0,0.0,28,-99.99,,,-99.99,WSDL version 430,2013-07-19 00:12:00,
2013-07-18 19:17:00,96.7,58.2,30.09,West,262,1.3,2.7,28,-99.99,,,-99.99,WSDL version 430,2013-07-19 00:17:00,
2013-07-18 19:22:00,95.6,57.1,30.12,West,270,1.0,2.7,28,-99.99,,,-99.99,WSDL version 430,2013-07-19 00:22:00,
2013-07-18 19:27:00,94.7,58.2,30.12,West,270,0.0,2.2,30,-99.99,,,-99.99,WSDL version 430,2013-07-19 00:27:00,
2013-07-18 19:32:00,94.3,59.0,30.12,West,270,0.0,0.0,31,-99.99,,,-99.99,WSDL version 430,2013-07-19 00:32:00,
2013-07-18 19:37:00,93.7,59.2,30.12,West,270,0.0,0.0,32,-99.99,,,-99.99,WSDL version 430,2013-07-19 00:37:00,
2013-07-18 19:42:00,93.1,60.3,30.12,West,270,0.0,0.0,34,-99.99,,,-99.99,WSDL version 430,2013-07-19 00:42:00,
2013-07-18 19:47:00,92.5,61.3,30.12,West,270,0.0,0.0,36,-99.99,,,-99.99,WSDL version 430,2013-07-19 00:47:00,
2013-07-18 19:52:00,91.7,61.5,30.12,West,270,0.0,0.0,37,-99.99,,,-99.99,WSDL version 430,2013-07-19 00:52:00,
2013-07-18 19:57:00,90.7,62.0,30.12,West,270,0.0,0.0,39,-99.99,,,-99.99,WSDL version 430,2013-07-19 00:57:00,
2013-07-18 20:07:00,89.8,62.3,30.12,West,270,0.0,0.0,40,-99.99,,,-99.99,WSDL version 430,2013-07-19 01:07:00,
2013-07-18 20:12:00,89.2,62.8,30.12,West,270,0.0,0.0,42,-99.99,,,-99.99,WSDL version 430,2013-07-19 01:12:00,
2013-07-18 20:17:00,88.6,63.1,30.12,West,270,0.0,0.0,43,-99.99,,,-99.99,WSDL version 430,2013-07-19 01:17:00,
2013-07-18 20:22:00,88.3,62.4,30.12,West,270,0.0,0.0,42,-99.99,,,-99.99,WSDL version 430,2013-07-19 01:22:00,
2013-07-18 20:27:00,87.8,63.0,30.12,West,270,0.0,0.0,44,-99.99,,,-99.99,WSDL version 430,2013-07-19 01:27:00,
2013-07-18 20:32:00,87.0,62.1,30.12,SE,131,2.7,4.3,43,-99.99,,,-99.99,WSDL version 430,2013-07-19 01:32:00,
2013-07-18 20:37:00,87.0,61.8,30.12,ESE,113,0.9,4.3,43,-99.99,,,-99.99,WSDL version 430,2013-07-19 01:37:00,
2013-07-18 20:42:00,87.2,62.4,30.12,ESE,113,0.2,3.6,44,-99.99,,,-99.99,WSDL version 430,2013-07-19 01:42:00,
2013-07-18 20:47:00,87.1,62.6,30.12,ESE,113,0.0,2.5,44,-99.99,,,-99.99,WSDL version 430,2013-07-19 01:47:00,
2013-07-18 20:52:00,86.7,62.2,30.12,ESE,113,0.1,2.0,44,-99.99,,,-99.99,WSDL version 430,2013-07-19 01:52:00,
2013-07-18 20:57:00,86.5,61.5,30.12,West,270,0.0,2.0,43,-99.99,,,-99.99,WSDL version 430,2013-07-19 01:57:00,
2013-07-18 21:02:00,86.1,61.0,30.12,ENE,63,0.6,2.5,43,-99.99,,,-99.99,WSDL version 430,2013-07-19 02:02:00,
2013-07-18 21:07:00,85.9,60.9,30.09,SE,135,1.1,2.9,43,-99.99,,,-99.99,WSDL version 430,2013-07-19 02:07:00,
2013-07-18 21:12:00,86.0,60.3,30.09,ESE,118,0.4,2.9,42,-99.99,,,-99.99,WSDL version 430,2013-07-19 02:12:00,
2013-07-18 21:17:00,86.0,60.3,30.09,SE,137,0.4,2.5,42,-99.99,,,-99.99,WSDL version 430,2013-07-19 02:17:00,
2013-07-18 21:22:00,85.5,59.8,30.12,WNW,293,0.5,2.5,42,-99.99,,,-99.99,WSDL version 430,2013-07-19 02:22:00,
2013-07-18 21:27:00,85.0,59.3,30.12,WSW,248,0.7,3.1,42,-99.99,,,-99.99,WSDL version 430,2013-07-19 02:27:00,
2013-07-18 21:32:00,85.0,59.3,30.12,East,93,0.4,3.1,42,-99.99,,,-99.99,WSDL version 430,2013-07-19 02:32:00,
2013-07-18 21:37:00,84.8,59.2,30.12,SW,215,0.0,2.5,42,-99.99,,,-99.99,WSDL version 430,2013-07-19 02:37:00,
2013-07-18 21:42:00,84.1,58.9,30.12,SSE,158,0.0,2.2,43,-99.99,,,-99.99,WSDL version 430,2013-07-19 02:42:00,
2013-07-18 21:47:00,83.8,59.4,30.12,SSE,158,0.0,1.6,44,-99.99,,,-99.99,WSDL version 430,2013-07-19 02:47:00,
2013-07-18 21:52:00,83.6,59.4,30.12,SSE,149,1.2,2.0,44,-99.99,,,-99.99,WSDL version 430,2013-07-19 02:52:00,
2013-07-18 21:57:00,83.0,59.0,30.12,SE,135,0.0,2.0,44,-99.99,,,-99.99,WSDL version 430,2013-07-19 02:57:00,
2013-07-18 22:02:00,82.6,59.1,30.12,SE,135,0.0,0.0,45,-99.99,,,-99.99,WSDL version 430,2013-07-19 03:02:00,
2013-07-18 22:07:00,82.6,59.6,30.12,SE,135,0.0,0.0,46,-99.99,,,-99.99,WSDL version 430,2013-07-19 03:07:00,
2013-07-18 22:12:00,82.2,60.2,30.12,SE,135,0.0,0.0,47,-99.99,,,-99.99,WSDL version 430,2013-07-19 03:12:00,
2013-07-18 22:22:00,81.5,60.5,30.12,SE,135,0.0,0.0,49,-99.99,,,-99.99,WSDL version 430,2013-07-19 03:22:00,
2013-07-18 22:27:00,81.3,60.4,30.12,SE,135,0.0,0.0,49,-99.99,,,-99.99,WSDL version 430,2013-07-19 03:27:00,
2013-07-18 22:32:00,80.9,60.2,30.12,SE,135,0.0,0.0,49,-99.99,,,-99.99,WSDL version 430,2013-07-19 03:32:00,
2013-07-18 22:37:00,80.5,61.0,30.12,SE,135,0.0,0.0,52,-99.99,,,-99.99,WSDL version 430,2013-07-19 03:37:00,
2013-07-18 22:42:00,80.4,60.9,30.12,SE,135,0.0,0.0,52,-99.99,,,-99.99,WSDL version 430,2013-07-19 03:42:00,
2013-07-18 22:47:00,80.0,60.8,30.12,SE,135,0.0,0.0,52,-99.99,,,-99.99,WSDL version 430,2013-07-19 03:47:00,
2013-07-18 22:52:00,79.7,61.2,30.12,SE,135,0.0,0.0,53,-99.99,,,-99.99,WSDL version 430,2013-07-19 03:52:00,
2013-07-18 22:57:00,79.9,61.6,30.12,SE,135,0.0,0.0,54,-99.99,,,-99.99,WSDL version 430,2013-07-19 03:57:00,
2013-07-18 23:02:00,79.7,61.6,30.12,SE,135,0.0,0.0,54,-99.99,,,-99.99,WSDL version 430,2013-07-19 04:02:00,
2013-07-18 23:07:00,79.3,61.6,30.09,SE,135,0.0,0.0,55,-99.99,,,-99.99,WSDL version 430,2013-07-19 04:07:00,
2013-07-18 23:12:00,79.3,61.8,30.09,SE,135,0.0,0.0,55,-99.99,,,-99.99,WSDL version 430,2013-07-19 04:12:00,
2013-07-18 23:17:00,78.9,61.8,30.09,SE,135,0.0,0.0,56,-99.99,,,-99.99,WSDL version 430,2013-07-19 04:17:00,
2013-07-18 23:22:00,78.7,61.7,30.12,SE,135,0.0,0.0,56,-99.99,,,-99.99,WSDL version 430,2013-07-19 04:22:00,
2013-07-18 23:27:00,78.7,61.7,30.12,SE,135,0.0,0.0,56,-99.99,,,-99.99,WSDL version 430,2013-07-19 04:27:00,
2013-07-18 23:32:00,78.3,61.5,30.12,SE,135,0.0,0.0,57,-99.99,,,-99.99,WSDL version 430,2013-07-19 04:32:00,
2013-07-18 23:37:00,78.2,62.2,30.15,SE,135,0.0,0.0,58,-99.99,,,-99.99,WSDL version 430,2013-07-19 04:37:00,
2013-07-18 23:42:00,78.3,62.8,30.15,SE,135,0.0,0.0,59,-99.99,,,-99.99,WSDL version 430,2013-07-19 04:42:00,
2013-07-18 23:47:00,78.0,62.1,30.15,SE,135,0.0,0.0,58,-99.99,,,-99.99,WSDL version 430,2013-07-19 04:47:00,
2013-07-18 23:52:00,77.7,62.3,30.12,SE,135,0.0,0.0,59,-99.99,,,-99.99,WSDL version 430,2013-07-19 04:52:00,
2013-07-18 23:57:00,77.6,62.2,30.12,SE,135,0.0,0.0,59,-99.99,,,-99.99,WSDL version 430,2013-07-19 04:57:00,